createdAt,value
2022-11-04T00:04:20.616Z,11.7
2022-11-04T00:09:20.770Z,11.7
2022-11-04T00:14:20.883Z,11.7
2022-11-04T00:19:20.819Z,11.7
2022-11-04T00:24:20.902Z,11.7
2022-11-04T00:29:20.953Z,11.6
2022-11-04T00:34:20.879Z,11.6
2022-11-04T00:39:20.874Z,11.6
2022-11-04T00:44:20.901Z,11.6
2022-11-04T00:49:20.884Z,11.5
2022-11-04T00:54:20.996Z,11.5
2022-11-04T00:59:20.909Z,11.4
2022-11-04T01:04:21.107Z,11.4
2022-11-04T01:09:21.086Z,11.4
2022-11-04T01:14:21.142Z,11.4
2022-11-04T01:19:21.075Z,11.4
2022-11-04T01:24:21.092Z,11.4
2022-11-04T01:29:21.096Z,11.4
2022-11-04T01:34:21.147Z,11.4
2022-11-04T01:39:21.313Z,11.3
2022-11-04T01:44:21.320Z,11.2
2022-11-04T01:49:21.189Z,11.2
2022-11-04T01:54:21.251Z,11.2
2022-11-04T01:59:21.291Z,11.2
2022-11-04T02:04:21.354Z,11.2
2022-11-04T02:09:21.415Z,11.2
2022-11-04T02:14:21.494Z,11.3
2022-11-04T02:19:21.608Z,11.2
2022-11-04T02:24:21.672Z,11.3
2022-11-04T02:29:21.605Z,11.3
2022-11-04T02:34:21.600Z,11.3
2022-11-04T02:39:21.699Z,11.3
2022-11-04T02:44:21.676Z,11.3
2022-11-04T02:49:21.977Z,11.3
2022-11-04T02:54:21.756Z,11.3
2022-11-04T02:59:21.752Z,11.3
2022-11-04T03:04:21.853Z,11.3
2022-11-04T03:09:21.896Z,11.2
2022-11-04T03:14:21.905Z,11.2
2022-11-04T03:19:21.927Z,11.2
2022-11-04T03:24:22.100Z,11.2
2022-11-04T03:29:22.303Z,11.1
2022-11-04T03:34:22.305Z,11.1
2022-11-04T03:39:22.635Z,11.1
2022-11-04T03:44:22.335Z,11
2022-11-04T03:49:22.311Z,11
2022-11-04T03:54:22.385Z,11
2022-11-04T03:59:22.425Z,11
2022-11-04T04:04:22.545Z,11.1
2022-11-04T04:09:22.531Z,11
2022-11-04T04:14:22.578Z,11
2022-11-04T04:19:22.521Z,11.1
2022-11-04T04:24:22.550Z,11
2022-11-04T04:29:22.525Z,11.1
2022-11-04T04:34:22.524Z,11.1
2022-11-04T04:39:22.902Z,11.1
2022-11-04T04:44:22.584Z,11.1
2022-11-04T04:49:22.576Z,11.2
2022-11-04T04:54:22.673Z,11.2
2022-11-04T04:59:22.667Z,11.2
2022-11-04T05:04:22.688Z,11.2
2022-11-04T05:09:22.804Z,11.2
2022-11-04T05:14:22.795Z,11.2
2022-11-04T05:19:22.803Z,11.2
2022-11-04T05:24:22.861Z,11.2
2022-11-04T05:29:22.918Z,11.2
2022-11-04T05:34:22.896Z,11.2
2022-11-04T05:39:23.227Z,11.2
2022-11-04T05:44:23.081Z,11.2
2022-11-04T05:49:23.157Z,11.2
2022-11-04T05:54:23.203Z,11.3
2022-11-04T05:59:23.206Z,11.2
2022-11-04T06:04:23.316Z,11.3
2022-11-04T06:09:23.284Z,11.3
2022-11-04T06:14:23.391Z,11.3
2022-11-04T06:19:23.730Z,11.4
2022-11-04T06:24:23.497Z,11.4
2022-11-04T06:29:23.633Z,11.4
2022-11-04T06:34:23.668Z,11.4
2022-11-04T06:39:23.829Z,11.4
2022-11-04T06:44:23.718Z,11.4
2022-11-04T06:49:23.797Z,11.5
2022-11-04T06:54:23.729Z,11.5
2022-11-04T06:59:23.831Z,11.5
2022-11-04T07:04:23.756Z,11.6
2022-11-04T07:09:24.043Z,11.7
2022-11-04T07:14:23.828Z,11.7
2022-11-04T07:19:24.181Z,11.8
2022-11-04T07:24:24.225Z,11.8
2022-11-04T07:29:24.442Z,11.9
2022-11-04T07:34:24.284Z,12
2022-11-04T07:39:24.645Z,12.1
2022-11-04T07:44:24.663Z,12.1
2022-11-04T07:49:25.075Z,12.1
2022-11-04T07:54:24.633Z,12.1
2022-11-04T07:59:25.177Z,12.1
2022-11-04T08:04:24.667Z,12.1
2022-11-04T08:09:24.759Z,12.2
2022-11-04T08:14:24.702Z,12.3
2022-11-04T08:19:24.687Z,12.4
2022-11-04T08:24:24.789Z,12.5
2022-11-04T08:29:24.869Z,12.5
2022-11-04T08:34:24.772Z,12.6
2022-11-04T08:39:24.710Z,12.6
2022-11-04T08:44:24.891Z,12.6
2022-11-04T08:49:25.002Z,12.7
2022-11-04T08:54:25.432Z,12.7
2022-11-04T08:59:25.487Z,12.7
2022-11-04T09:04:25.598Z,12.7
2022-11-04T09:09:25.251Z,12.6
2022-11-04T09:14:25.492Z,12.7
2022-11-04T09:19:25.249Z,12.7
2022-11-04T09:24:25.556Z,12.8
2022-11-04T09:29:25.721Z,12.8
2022-11-04T09:34:25.604Z,12.8
2022-11-04T09:39:25.235Z,12.8
2022-11-04T09:44:25.597Z,12.9
2022-11-04T09:49:25.247Z,12.9
2022-11-04T09:54:25.237Z,12.9
2022-11-04T09:59:25.218Z,12.9
2022-11-04T10:04:25.331Z,13
2022-11-04T10:09:25.514Z,12.9
2022-11-04T10:14:25.231Z,13
2022-11-04T10:19:25.486Z,13
2022-11-04T10:24:25.568Z,13
2022-11-04T10:29:25.218Z,13
2022-11-04T10:34:25.463Z,13
2022-11-04T10:39:25.494Z,13
2022-11-04T10:44:25.477Z,13
2022-11-04T10:49:25.214Z,13.1
2022-11-04T10:54:25.229Z,13.1
2022-11-04T10:59:25.215Z,13.1
2022-11-04T11:04:25.645Z,13.1
2022-11-04T11:09:25.214Z,13.1
2022-11-04T11:14:25.220Z,13.2
2022-11-04T11:19:25.217Z,13.2
2022-11-04T11:24:25.240Z,13.2
2022-11-04T11:29:25.559Z,13.3
2022-11-04T11:34:25.266Z,13.3
2022-11-04T11:39:25.215Z,13.3
2022-11-04T11:44:25.525Z,13.4
2022-11-04T11:49:25.511Z,13.4
2022-11-04T11:54:25.693Z,13.4
2022-11-04T12:09:27.639Z,13.4
2022-11-04T12:14:25.479Z,13.4
2022-11-04T12:19:25.751Z,13.4
2022-11-04T12:24:25.505Z,13.3
2022-11-04T12:29:25.819Z,13.3
2022-11-04T12:34:25.955Z,13.3
2022-11-04T12:39:26.311Z,13.3
2022-11-04T12:44:26.040Z,13.3
2022-11-04T12:49:25.662Z,13.3
2022-11-04T12:54:25.896Z,13.4
2022-11-04T12:59:25.698Z,13.3
2022-11-04T13:04:25.983Z,13.4
2022-11-04T13:09:26.164Z,13.4
2022-11-04T13:14:25.900Z,13.4
2022-11-04T13:19:25.952Z,13.4
2022-11-04T13:24:25.946Z,13.4
2022-11-04T13:34:42.145Z,13.4
2022-11-04T13:39:42.240Z,13.4
2022-11-04T13:44:42.057Z,13.3
2022-11-04T13:49:42.073Z,13.3
2022-11-04T13:54:42.146Z,13.2
2022-11-04T13:59:42.290Z,13.2
2022-11-04T14:04:42.008Z,13.2
2022-11-04T14:09:42.020Z,13.2
2022-11-04T14:14:42.016Z,13.2
2022-11-04T14:19:42.043Z,13.1
2022-11-04T14:24:42.007Z,13.1
2022-11-04T14:29:42.010Z,13.2
2022-11-04T14:34:42.825Z,13.1
2022-11-04T14:39:42.018Z,13.1
2022-11-04T14:44:41.993Z,13.1
2022-11-04T14:49:42.023Z,13.2
2022-11-04T14:54:41.987Z,13.2
2022-11-04T14:59:42.016Z,13.1
2022-11-04T15:04:41.989Z,13.2
2022-11-04T15:09:41.991Z,13.1
2022-11-04T15:14:41.983Z,13.1
2022-11-04T15:19:42.155Z,13.1
2022-11-04T15:24:41.977Z,13.1
2022-11-04T15:29:42.010Z,13.1
2022-11-04T15:34:41.969Z,13.1
2022-11-04T15:39:41.994Z,13
2022-11-04T15:44:41.972Z,13
2022-11-04T15:49:41.995Z,13
2022-11-04T15:54:41.973Z,13
2022-11-04T15:59:42.027Z,12.9
2022-11-04T16:04:45.331Z,13
2022-11-04T16:09:41.983Z,12.9
2022-11-04T16:14:41.968Z,12.8
2022-11-04T16:19:41.995Z,12.8
2022-11-04T16:24:41.970Z,12.8
2022-11-04T16:29:46.862Z,12.8
2022-11-04T16:34:41.987Z,12.7
2022-11-04T16:39:42.108Z,12.7
2022-11-04T16:44:41.965Z,12.7
2022-11-04T16:49:41.967Z,12.7
2022-11-04T16:54:41.974Z,12.7
2022-11-04T16:59:41.994Z,12.7
2022-11-04T17:04:41.965Z,12.7
2022-11-04T17:09:41.980Z,12.6
2022-11-04T17:14:41.971Z,12.7
2022-11-04T17:19:41.986Z,12.7
2022-11-04T17:24:41.964Z,12.6
2022-11-04T17:29:42.021Z,12.6
2022-11-04T17:34:42.011Z,12.6
2022-11-04T17:39:42.091Z,12.6
2022-11-04T17:44:42.038Z,12.6
2022-11-04T17:49:42.057Z,12.6
2022-11-04T17:54:42.032Z,12.6
2022-11-04T17:59:42.059Z,12.6
2022-11-04T18:04:42.058Z,12.6
2022-11-04T18:09:42.047Z,12.7
2022-11-04T18:14:42.035Z,12.7
2022-11-04T18:19:42.069Z,12.6
2022-11-04T18:24:42.088Z,12.7
2022-11-04T18:29:42.055Z,12.7
2022-11-04T18:34:42.039Z,12.7
2022-11-04T18:39:42.076Z,12.7
2022-11-04T18:44:42.046Z,12.7
2022-11-04T18:49:42.088Z,12.7
2022-11-04T18:54:42.048Z,12.6
2022-11-04T18:59:42.092Z,12.6
2022-11-04T19:04:42.059Z,12.5
2022-11-04T19:09:46.944Z,12.5
2022-11-04T19:14:42.057Z,12.5
2022-11-04T19:19:42.179Z,12.5
2022-11-04T19:24:42.061Z,12.5
2022-11-04T19:29:42.076Z,12.4
2022-11-04T19:34:42.065Z,12.5
2022-11-04T19:39:42.093Z,12.4
2022-11-04T19:44:42.216Z,12.4
2022-11-04T19:49:42.059Z,12.4
2022-11-04T19:54:42.069Z,12.4
2022-11-04T19:59:42.077Z,12.4
2022-11-04T20:04:42.056Z,12.4
2022-11-04T20:09:42.070Z,12.4
2022-11-04T20:14:42.058Z,12.3
2022-11-04T20:19:42.098Z,12.3
2022-11-04T20:24:42.063Z,12.3
2022-11-04T20:29:42.083Z,12.3
2022-11-04T20:34:42.056Z,12.2
2022-11-04T20:39:42.249Z,12.2
2022-11-04T20:44:42.047Z,12.3
2022-11-04T20:49:42.068Z,12.2
2022-11-04T20:54:42.051Z,12.2
2022-11-04T20:59:42.091Z,12.2
2022-11-04T21:04:42.044Z,12.2
2022-11-04T21:09:42.062Z,12.3
2022-11-04T21:14:42.047Z,12.3
2022-11-04T21:19:42.080Z,12.3
2022-11-04T21:24:42.046Z,12.3
2022-11-04T21:29:42.187Z,12.3
2022-11-04T21:34:42.157Z,12.3
2022-11-04T21:39:42.245Z,12.3
2022-11-04T21:44:42.098Z,12.3
2022-11-04T21:49:42.093Z,12.3
2022-11-04T21:54:42.086Z,12.3
2022-11-04T21:59:42.116Z,12.3
2022-11-04T22:04:42.094Z,12.3
2022-11-04T22:09:42.103Z,12.3
2022-11-04T22:14:42.106Z,12.3
2022-11-04T22:19:42.123Z,12.3
2022-11-04T22:24:42.104Z,12.3
2022-11-04T22:29:42.111Z,12.3
2022-11-04T22:34:42.092Z,12.4
2022-11-04T22:39:42.113Z,12.3
2022-11-04T22:44:42.093Z,12.3
2022-11-04T22:49:42.089Z,12.3
2022-11-04T22:54:42.082Z,12.4
2022-11-04T22:59:42.119Z,12.4
2022-11-04T23:04:42.083Z,12.3
2022-11-04T23:09:42.083Z,12.3
2022-11-04T23:14:42.084Z,12.2
2022-11-04T23:19:42.115Z,12.3
2022-11-04T23:24:42.079Z,12.2
2022-11-04T23:29:42.108Z,12.2
2022-11-04T23:34:42.093Z,12.2
2022-11-04T23:39:42.120Z,12.3
2022-11-04T23:44:42.094Z,12.3
2022-11-04T23:49:42.098Z,12.2
2022-11-04T23:54:42.113Z,12.2
2022-11-04T23:59:42.113Z,12.2
